Terminal Aerodrome Forecast
Issued by NWS Cleveland, OH

Home | Current Version | Previous Version | Text Only | Print | Product List | Glossary Off
Versions: 1 2 3 4 5 6 7 8 9 10 11 12 13 14 15 16 17 18 19 20 21 22 23 24 25 26 27

000
FTUS41 KCLE 290946 AAB
TAFTOL
TAF AMD
KTOL 290946Z 2910/3006 08005KT P6SM OVC011
      TEMPO 2910/2913 2SM -SHRA BR OVC004
     FM291300 04005KT P6SM OVC006
     FM291600 05010KT P6SM VCSH OVC012
     FM292200 06012KT P6SM OVC030=

USA.gov is the U.S. government's official web portal to all federal, state and local government web resources and services.